createdAt,value
2018-02-22T00:00:32.149Z,34.3528
2018-02-22T00:01:37.056Z,33.4359
2018-02-22T00:02:41.970Z,34.8548
2018-02-22T00:03:47.854Z,34.3528
2018-02-22T00:04:53.050Z,34.6038
2018-02-22T00:05:58.244Z,34.3528
2018-02-22T00:07:03.530Z,34.6038
2018-02-22T00:08:09.038Z,34.1044
2018-02-22T00:09:14.520Z,34.6038
2018-02-22T00:10:20.001Z,34.6038
2018-02-22T00:11:25.509Z,35.1059
2018-02-22T00:12:30.950Z,34.8548
2018-02-22T00:13:36.428Z,34.8548
2018-02-22T00:14:41.944Z,34.8548
2018-02-22T00:15:47.834Z,34.8548
2018-02-22T00:16:53.061Z,33.9353
2018-02-22T00:17:58.521Z,34.8548
2018-02-22T00:19:03.936Z,34.1044
2018-02-22T00:20:09.405Z,35.1059
2018-02-22T00:21:14.890Z,34.8548
2018-02-22T00:22:20.741Z,35.1059
2018-02-22T00:23:26.242Z,34.8548
2018-02-22T00:24:31.984Z,34.8548
2018-02-22T00:25:37.216Z,34.6038
2018-02-22T00:26:42.391Z,35.6053
2018-02-22T00:27:48.256Z,35.3569
2018-02-22T00:28:53.434Z,35.6053
2018-02-22T00:29:58.620Z,36.3583
2018-02-22T00:31:04.064Z,36.3583
2018-02-22T00:32:09.023Z,36.6093
2018-02-22T00:33:14.208Z,36.1073
2018-02-22T00:34:20.056Z,36.1073
2018-02-22T00:35:25.539Z,36.3583
2018-02-22T00:36:30.724Z,35.8563
2018-02-22T00:37:36.227Z,35.8563
2018-02-22T00:38:41.709Z,36.6093
2018-02-22T00:39:47.815Z,36.3583
2018-02-22T00:40:53.395Z,35.8563
2018-02-22T00:41:58.864Z,35.6053
2018-02-22T00:43:04.630Z,36.3583
2018-02-22T00:44:09.798Z,35.8563
2018-02-22T00:45:14.446Z,36.6093
2018-02-22T00:46:20.200Z,36.3583
2018-02-22T00:47:25.695Z,36.6093
2018-02-22T00:48:31.575Z,35.6053
2018-02-22T00:49:37.037Z,35.8563
2018-02-22T00:50:41.968Z,36.1073
2018-02-22T00:51:47.470Z,36.6093
2018-02-22T00:52:52.976Z,36.6093
2018-02-22T00:53:58.501Z,36.1073
2018-02-22T00:55:03.985Z,37.5289
2018-02-22T00:56:09.476Z,36.7758
2018-02-22T00:57:14.650Z,36.6093
2018-02-22T00:58:20.358Z,35.6053
2018-02-22T00:59:25.279Z,35.8563
2018-02-22T01:00:31.462Z,36.3583
2018-02-22T01:01:36.955Z,35.6053
2018-02-22T01:02:42.150Z,36.6093
2018-02-22T01:03:47.933Z,36.1073
2018-02-22T01:04:53.430Z,36.7758
2018-02-22T01:05:58.896Z,36.1073
2018-02-22T01:07:04.779Z,35.3569
2018-02-22T01:08:10.013Z,35.6053
2018-02-22T01:09:15.236Z,35.6053
2018-02-22T01:10:20.569Z,36.3583
2018-02-22T01:11:26.094Z,36.3583
2018-02-22T01:12:32.103Z,36.6093
2018-02-22T01:13:37.618Z,36.6093
2018-02-22T01:14:43.084Z,35.8563
2018-02-22T01:15:48.663Z,36.6093
2018-02-22T01:16:53.878Z,36.7758
2018-02-22T01:17:59.049Z,35.8563
2018-02-22T01:19:04.759Z,36.1073
2018-02-22T01:20:10.224Z,36.6093
2018-02-22T01:21:15.420Z,37.0268
2018-02-22T01:22:21.196Z,37.2778
2018-02-22T01:23:26.104Z,36.3583
2018-02-22T01:24:31.611Z,36.6093
2018-02-22T01:25:37.080Z,36.7758
2018-02-22T01:26:42.590Z,36.7758
2018-02-22T01:27:48.456Z,37.5289
2018-02-22T01:28:53.927Z,36.7758
2018-02-22T01:29:59.451Z,36.6093
2018-02-22T01:31:05.177Z,37.5289
2018-02-22T01:32:10.681Z,36.6093
2018-02-22T01:33:16.184Z,37.5289
2018-02-22T01:34:21.976Z,37.2778
2018-02-22T01:35:27.139Z,36.6093
2018-02-22T01:36:33.118Z,37.2778
2018-02-22T01:37:38.310Z,37.2778
2018-02-22T01:38:43.215Z,37.2778
2018-02-22T01:39:49.172Z,36.6093
2018-02-22T01:40:54.634Z,36.7758
2018-02-22T01:42:00.097Z,36.6093
2018-02-22T01:43:05.589Z,37.2778
2018-02-22T01:44:11.055Z,36.7758
2018-02-22T01:45:16.541Z,37.0268
2018-02-22T01:46:22.325Z,36.7758
2018-02-22T01:47:27.274Z,36.6093
2018-02-22T01:48:33.273Z,37.2778
2018-02-22T01:49:38.457Z,36.7758
2018-02-22T01:50:43.943Z,37.0268
2018-02-22T01:51:49.699Z,37.2778
2018-02-22T01:52:55.176Z,37.7772
2018-02-22T01:54:00.356Z,36.7758
2018-02-22T01:55:06.034Z,37.0268
2018-02-22T01:56:11.528Z,37.7772
2018-02-22T01:57:17.043Z,38.0283
2018-02-22T01:58:22.804Z,38.2793
2018-02-22T01:59:27.991Z,37.0268
2018-02-22T02:00:33.517Z,37.2778
2018-02-22T02:01:38.738Z,38.0283
2018-02-22T02:02:43.391Z,37.5289
2018-02-22T02:03:48.845Z,37.0268
2018-02-22T02:04:54.338Z,37.7772
2018-02-22T02:05:59.804Z,38.0283
2018-02-22T02:07:05.240Z,38.2793
2018-02-22T02:08:10.474Z,38.5303
2018-02-22T02:09:15.995Z,38.0283
2018-02-22T02:10:21.712Z,39.0323
2018-02-22T02:11:26.961Z,38.5303
2018-02-22T02:12:32.886Z,38.7813
2018-02-22T02:13:37.517Z,38.7813
2018-02-22T02:14:42.765Z,38.5303
2018-02-22T02:15:48.240Z,38.7813
2018-02-22T02:16:53.725Z,37.5289
2018-02-22T02:17:58.655Z,38.0283
2018-02-22T02:19:04.375Z,38.2793
2018-02-22T02:20:09.871Z,37.5289
2018-02-22T02:21:15.341Z,39.0323
2018-02-22T02:22:20.966Z,38.0283
2018-02-22T02:23:26.171Z,38.0283
2018-02-22T02:24:31.670Z,38.0283
2018-02-22T02:25:36.312Z,38.2793
2018-02-22T02:26:41.525Z,37.0268
2018-02-22T02:27:47.403Z,38.0283
2018-02-22T02:28:52.927Z,37.2778
2018-02-22T02:29:58.442Z,38.2793
2018-02-22T02:31:03.872Z,37.7772
2018-02-22T02:32:09.349Z,38.2793
2018-02-22T02:33:14.858Z,37.7772
2018-02-22T02:34:20.679Z,38.2793
2018-02-22T02:35:26.188Z,37.5289
2018-02-22T02:36:31.676Z,38.2793
2018-02-22T02:37:36.885Z,38.0283
2018-02-22T02:38:41.797Z,37.5289
2018-02-22T02:39:47.655Z,38.2793
2018-02-22T02:40:52.878Z,37.5289
2018-02-22T02:41:58.090Z,38.7813
2018-02-22T02:43:03.895Z,37.7772
2018-02-22T02:44:09.111Z,38.2793
2018-02-22T02:45:14.583Z,38.5303
2018-02-22T02:46:20.527Z,38.7813
2018-02-22T02:47:25.768Z,38.0283
2018-02-22T02:48:31.273Z,38.0283
2018-02-22T02:49:36.799Z,38.2793
2018-02-22T02:50:41.440Z,38.0283
2018-02-22T02:51:47.168Z,38.2793
2018-02-22T02:52:52.672Z,38.5303
2018-02-22T02:53:58.173Z,38.0283
2018-02-22T02:55:03.134Z,39.0323
2018-02-22T02:56:08.335Z,39.0323
2018-02-22T02:57:13.831Z,38.7813
2018-02-22T02:58:19.686Z,38.7813
2018-02-22T02:59:24.602Z,38.7813
2018-02-22T03:00:30.290Z,38.0283
2018-02-22T03:01:35.204Z,39.2834
2018-02-22T03:02:40.708Z,39.0323
2018-02-22T03:03:46.671Z,38.7813
2018-02-22T03:04:52.147Z,39.7008
2018-02-22T03:05:57.371Z,39.1988
2018-02-22T03:07:02.902Z,39.4498
2018-02-22T03:08:08.405Z,39.1988
2018-02-22T03:09:13.892Z,39.2834
2018-02-22T03:10:19.718Z,39.4498
2018-02-22T03:11:24.900Z,39.7008
2018-02-22T03:12:30.367Z,40.1183
2018-02-22T03:13:35.579Z,39.7008
2018-02-22T03:14:41.071Z,39.7008
2018-02-22T03:15:46.340Z,39.7008
2018-02-22T03:16:51.834Z,39.7008
2018-02-22T03:17:57.038Z,40.1183
2018-02-22T03:19:01.948Z,39.1988
2018-02-22T03:20:07.435Z,40.6204
2018-02-22T03:21:12.924Z,39.4498
2018-02-22T03:22:18.914Z,39.4498
2018-02-22T03:23:24.120Z,40.6204
2018-02-22T03:24:29.883Z,39.4498
2018-02-22T03:25:35.095Z,39.4498
2018-02-22T03:26:40.571Z,39.4498
2018-02-22T03:27:46.114Z,39.7008
2018-02-22T03:28:51.072Z,40.1183
2018-02-22T03:29:56.335Z,40.1183
2018-02-22T03:31:02.069Z,40.1183
2018-02-22T03:32:07.552Z,39.7008
2018-02-22T03:33:12.803Z,40.1183
2018-02-22T03:34:18.221Z,39.9519
2018-02-22T03:35:23.739Z,40.6204
2018-02-22T03:36:29.712Z,39.7008
2018-02-22T03:37:34.618Z,39.7008
2018-02-22T03:38:40.113Z,39.7008
2018-02-22T03:39:45.543Z,39.4498
2018-02-22T03:40:51.074Z,38.7813
2018-02-22T03:41:56.294Z,39.4498
2018-02-22T03:43:02.020Z,39.4498
2018-02-22T03:44:07.224Z,39.2834
2018-02-22T03:45:12.713Z,39.7008
2018-02-22T03:46:18.499Z,39.7008
2018-02-22T03:47:23.683Z,39.2834
2018-02-22T03:48:29.030Z,39.7008
2018-02-22T03:49:33.932Z,39.7008
2018-02-22T03:50:39.412Z,39.7008
2018-02-22T03:51:45.198Z,39.9519
2018-02-22T03:52:50.710Z,39.4498
2018-02-22T03:53:55.921Z,38.7813
2018-02-22T03:55:01.384Z,40.1183
2018-02-22T03:56:06.887Z,39.2834
2018-02-22T03:57:12.161Z,39.4498
2018-02-22T03:58:17.981Z,39.9519
2018-02-22T03:59:23.208Z,39.4498
2018-02-22T04:00:29.287Z,39.7008
2018-02-22T04:01:34.203Z,38.5303
2018-02-22T04:02:39.703Z,39.2834
2018-02-22T04:03:45.480Z,37.7772
2018-02-22T04:04:51.010Z,39.7008
2018-02-22T04:05:56.199Z,39.2834
2018-02-22T04:07:01.664Z,38.7813
2018-02-22T04:08:07.171Z,39.0323
2018-02-22T04:09:12.649Z,37.7772
2018-02-22T04:10:18.387Z,38.7813
2018-02-22T04:11:23.678Z,38.7813
2018-02-22T04:12:29.697Z,38.5303
2018-02-22T04:13:35.180Z,38.5303
2018-02-22T04:14:40.097Z,39.2834
2018-02-22T04:15:45.988Z,38.5303
2018-02-22T04:16:51.201Z,38.2793
2018-02-22T04:17:56.412Z,38.0283
2018-02-22T04:19:01.767Z,38.7813
2018-02-22T04:20:06.689Z,38.5303
2018-02-22T04:21:12.208Z,38.2793
2018-02-22T04:22:17.962Z,39.2834
2018-02-22T04:23:23.455Z,37.7772
2018-02-22T04:24:29.655Z,39.0323
2018-02-22T04:25:34.886Z,38.2793
2018-02-22T04:26:40.347Z,37.5289
2018-02-22T04:27:46.209Z,38.5303
2018-02-22T04:28:51.700Z,38.0283
2018-02-22T04:29:57.180Z,37.5289
2018-02-22T04:31:02.703Z,37.0268
2018-02-22T04:32:07.919Z,38.2793
2018-02-22T04:33:13.400Z,37.2778
2018-02-22T04:34:19.139Z,37.2778
2018-02-22T04:35:24.059Z,36.6093
2018-02-22T04:36:29.496Z,37.7772
2018-02-22T04:37:34.712Z,38.0283
2018-02-22T04:38:39.974Z,38.2793
2018-02-22T04:39:45.580Z,37.7772
2018-02-22T04:40:51.060Z,37.5289
2018-02-22T04:41:56.551Z,37.2778
2018-02-22T04:43:02.302Z,37.2778
2018-02-22T04:44:07.536Z,36.6093
2018-02-22T04:45:13.042Z,36.6093
2018-02-22T04:46:18.871Z,37.0268
2018-02-22T04:47:24.116Z,37.1087
2018-02-22T04:48:30.099Z,36.3583
2018-02-22T04:49:35.283Z,37.5289
2018-02-22T04:50:40.198Z,36.8604
2018-02-22T04:51:45.948Z,37.5289
2018-02-22T04:52:51.446Z,36.8604
2018-02-22T04:53:56.668Z,36.8604
2018-02-22T04:55:02.604Z,37.1087
2018-02-22T04:56:07.494Z,37.2778
2018-02-22T04:57:12.435Z,37.5289
2018-02-22T04:58:18.201Z,37.1087
2018-02-22T04:59:23.689Z,37.7772
2018-02-22T05:00:29.779Z,37.2778
2018-02-22T05:01:34.725Z,38.2793
2018-02-22T05:02:40.229Z,36.8604
2018-02-22T05:03:45.686Z,37.5289
2018-02-22T05:04:50.580Z,37.1087
2018-02-22T05:05:56.112Z,37.2778
2018-02-22T05:07:01.688Z,37.1087
2018-02-22T05:08:06.900Z,35.8563
2018-02-22T05:09:12.154Z,37.2778
2018-02-22T05:10:17.589Z,36.6093
2018-02-22T05:11:23.099Z,36.6093
2018-02-22T05:12:28.557Z,37.2778
2018-02-22T05:13:34.062Z,36.6093
2018-02-22T05:14:39.558Z,36.6093
2018-02-22T05:15:44.805Z,36.8604
2018-02-22T05:16:50.275Z,36.6093
2018-02-22T05:17:55.523Z,36.8604
2018-02-22T05:19:00.800Z,36.6093
2018-02-22T05:20:05.993Z,37.1087
2018-02-22T05:21:11.479Z,37.1087
2018-02-22T05:22:16.923Z,36.8604
2018-02-22T05:23:22.449Z,36.6093
2018-02-22T05:24:28.186Z,37.2778
2018-02-22T05:25:33.417Z,36.8604
2018-02-22T05:26:38.624Z,37.2778
2018-02-22T05:27:44.267Z,36.6093
2018-02-22T05:28:49.733Z,37.5289
2018-02-22T05:29:54.991Z,37.5289
2018-02-22T05:31:00.720Z,37.2778
2018-02-22T05:32:06.184Z,36.8604
2018-02-22T05:33:11.359Z,37.5289
2018-02-22T05:34:17.494Z,37.2778
2018-02-22T05:35:22.859Z,37.2778
2018-02-22T05:36:28.300Z,37.2778
2018-02-22T05:37:33.492Z,38.0283
2018-02-22T05:38:38.709Z,37.7772
2018-02-22T05:39:43.968Z,38.2793
2018-02-22T05:40:49.459Z,37.1087
2018-02-22T05:41:54.953Z,37.5289
2018-02-22T05:43:00.186Z,37.5289
2018-02-22T05:44:05.648Z,37.5289
2018-02-22T05:45:10.843Z,37.7772
2018-02-22T05:46:15.775Z,37.2778
2018-02-22T05:47:20.962Z,36.6093
2018-02-22T05:48:41.372Z,36.8604
2018-02-22T05:49:46.911Z,37.5289
2018-02-22T05:50:52.099Z,36.6093
2018-02-22T05:51:57.837Z,37.1087
2018-02-22T05:53:03.338Z,37.5289
2018-02-22T05:54:08.838Z,37.1087
2018-02-22T05:55:14.637Z,37.2778
2018-02-22T05:56:19.605Z,37.1087
2018-02-22T05:57:25.524Z,37.5289
2018-02-22T05:58:30.761Z,38.0283
2018-02-22T05:59:35.954Z,37.5289
2018-02-22T06:00:41.156Z,37.2778
2018-02-22T06:01:46.641Z,37.5289
2018-02-22T06:02:52.119Z,37.2778
2018-02-22T06:03:57.898Z,37.5289
2018-02-22T06:05:03.086Z,37.5289
2018-02-22T06:06:08.633Z,37.5289
2018-02-22T06:07:14.418Z,37.7772
2018-02-22T06:08:19.921Z,37.1087
2018-02-22T06:09:26.015Z,37.5289
2018-02-22T06:10:31.511Z,37.5289
2018-02-22T06:11:37.046Z,37.1087
2018-02-22T06:12:42.783Z,36.6093
2018-02-22T06:13:47.772Z,37.2778
2018-02-22T06:14:52.733Z,37.5289
2018-02-22T06:15:58.390Z,37.5289
2018-02-22T06:17:03.307Z,37.7772
2018-02-22T06:18:08.535Z,37.7772
2018-02-22T06:19:14.340Z,37.1087
2018-02-22T06:20:19.872Z,37.7772
2018-02-22T06:21:39.948Z,37.5289
2018-02-22T06:22:45.133Z,37.1087
2018-02-22T06:23:50.030Z,37.2778
2018-02-22T06:24:55.777Z,37.1087
2018-02-22T06:26:00.707Z,37.2778
2018-02-22T06:27:06.206Z,37.2778
2018-02-22T06:28:11.928Z,37.2778
2018-02-22T06:29:16.568Z,38.0283
2018-02-22T06:30:22.059Z,37.2778
2018-02-22T06:31:27.895Z,37.7772
2018-02-22T06:32:33.378Z,36.8604
2018-02-22T06:33:39.177Z,38.2793
2018-02-22T06:34:44.690Z,37.2778
2018-02-22T06:35:49.872Z,36.8604
2018-02-22T06:36:55.706Z,37.5289
2018-02-22T06:38:00.889Z,36.6093
2018-02-22T06:39:06.083Z,36.6093
2018-02-22T06:40:11.468Z,36.1073
2018-02-22T06:41:16.372Z,36.1073
2018-02-22T06:42:21.307Z,36.8604
2018-02-22T06:43:41.703Z,36.8604
2018-02-22T06:44:46.941Z,36.6093
2018-02-22T06:45:52.779Z,36.6093
2018-02-22T06:46:58.270Z,35.8563
2018-02-22T06:48:03.219Z,35.8563
2018-02-22T06:49:08.662Z,35.6053
2018-02-22T06:50:14.148Z,35.8563
2018-02-22T06:51:19.611Z,35.8563
2018-02-22T06:52:25.211Z,35.6053
2018-02-22T06:53:30.227Z,35.6053
2018-02-22T06:54:36.018Z,35.6053
2018-02-22T06:55:41.497Z,35.8563
2018-02-22T06:56:46.689Z,36.3583
2018-02-22T06:57:52.164Z,35.6053
2018-02-22T06:58:57.677Z,35.3569
2018-02-22T07:00:02.867Z,35.1059
2018-02-22T07:01:08.637Z,35.6053
2018-02-22T07:02:14.140Z,35.3569
2018-02-22T07:03:19.605Z,35.1059
2018-02-22T07:04:25.158Z,35.1059
2018-02-22T07:05:30.358Z,35.6053
2018-02-22T07:06:36.120Z,34.8548
2018-02-22T07:07:41.609Z,34.6038
2018-02-22T07:08:46.249Z,34.1863
2018-02-22T07:09:52.112Z,34.4373
2018-02-22T07:10:57.334Z,34.4373
2018-02-22T07:12:02.858Z,34.6038
2018-02-22T07:13:08.768Z,34.1863
2018-02-22T07:14:14.256Z,34.6884
2018-02-22T07:15:19.726Z,33.6869
2018-02-22T07:16:25.177Z,34.6038
2018-02-22T07:17:30.398Z,34.8548
2018-02-22T07:18:35.813Z,34.1863
2018-02-22T07:19:40.720Z,34.6038
2018-02-22T07:20:45.937Z,35.1059
2018-02-22T07:21:51.693Z,35.1059
2018-02-22T07:22:56.875Z,34.8548
2018-02-22T07:24:01.770Z,34.1863
2018-02-22T07:25:07.251Z,34.8548
2018-02-22T07:26:12.746Z,35.1059
2018-02-22T07:27:18.236Z,34.6038
2018-02-22T07:28:24.051Z,34.4373
2018-02-22T07:29:29.240Z,34.6038
2018-02-22T07:30:34.450Z,35.3569
2018-02-22T07:31:39.961Z,34.8548
2018-02-22T07:32:45.428Z,34.6038
2018-02-22T07:33:50.890Z,34.8548
2018-02-22T07:34:56.373Z,35.6053
2018-02-22T07:36:01.285Z,35.3569
2018-02-22T07:37:07.133Z,34.8548
2018-02-22T07:38:12.656Z,33.9353
2018-02-22T07:39:17.860Z,35.1059
2018-02-22T07:40:23.622Z,34.6038
2018-02-22T07:41:28.806Z,34.8548
2018-02-22T07:42:34.249Z,34.6038
2018-02-22T07:43:39.747Z,34.8548
2018-02-22T07:44:45.236Z,34.8548
2018-02-22T07:45:51.008Z,34.4373
2018-02-22T07:46:56.490Z,35.1059
2018-02-22T07:48:01.417Z,34.8548
2018-02-22T07:49:07.348Z,34.1863
2018-02-22T07:50:12.814Z,34.6038
2018-02-22T07:51:18.277Z,35.8563
2018-02-22T07:52:24.001Z,35.1059
2018-02-22T07:53:29.206Z,35.1059
2018-02-22T07:54:34.456Z,35.1059
2018-02-22T07:55:39.962Z,34.3528
2018-02-22T07:56:45.439Z,35.6053
2018-02-22T07:57:50.896Z,35.3569
2018-02-22T07:58:56.410Z,35.3569
2018-02-22T08:00:01.643Z,35.6053
2018-02-22T08:01:07.179Z,34.1863
2018-02-22T08:02:12.667Z,34.6038
2018-02-22T08:03:17.589Z,35.1059
2018-02-22T08:04:23.412Z,34.3528
2018-02-22T08:05:28.593Z,34.8548
2018-02-22T08:06:34.424Z,34.8548
2018-02-22T08:07:39.347Z,34.6038
2018-02-22T08:08:45.171Z,35.8563
2018-02-22T08:09:50.674Z,34.6038
2018-02-22T08:10:56.143Z,34.3528
2018-02-22T08:12:00.488Z,35.3569
2018-02-22T08:13:05.404Z,34.8548
2018-02-22T08:14:10.626Z,34.8548
2018-02-22T08:15:16.215Z,33.9353
2018-02-22T08:16:21.477Z,34.1044
2018-02-22T08:17:26.998Z,33.9353
2018-02-22T08:18:32.509Z,34.6038
2018-02-22T08:19:37.999Z,35.6053
2018-02-22T08:20:43.487Z,34.3528
2018-02-22T08:21:49.066Z,35.1059
2018-02-22T08:22:54.260Z,34.8548
2018-02-22T08:23:59.742Z,34.6038
2018-02-22T08:25:05.522Z,34.8548
2018-02-22T08:26:10.956Z,34.3528
2018-02-22T08:27:16.462Z,35.3569
2018-02-22T08:28:22.195Z,35.3569
2018-02-22T08:29:26.811Z,35.6053
2018-02-22T08:30:32.561Z,34.8548
2018-02-22T08:31:38.068Z,34.1044
2018-02-22T08:32:43.558Z,34.6038
2018-02-22T08:33:48.486Z,34.8548
2018-02-22T08:34:54.023Z,34.6038
2018-02-22T08:35:59.650Z,34.6038
2018-02-22T08:37:05.476Z,35.3569
2018-02-22T08:38:10.700Z,34.8548
2018-02-22T08:39:16.027Z,35.3569
2018-02-22T08:40:21.348Z,34.8548
2018-02-22T08:41:26.908Z,35.3569
2018-02-22T08:42:32.694Z,33.9353
2018-02-22T08:43:37.951Z,35.1059
2018-02-22T08:44:43.608Z,34.3528
2018-02-22T08:45:49.685Z,35.6053
2018-02-22T08:46:54.891Z,34.6038
2018-02-22T08:48:00.263Z,34.6038
2018-02-22T08:49:05.423Z,34.8548
2018-02-22T08:50:10.954Z,35.8563
2018-02-22T08:51:16.418Z,34.8548
2018-02-22T08:52:22.339Z,35.6053
2018-02-22T08:53:27.541Z,34.6038
2018-02-22T08:54:33.264Z,35.1059
2018-02-22T08:55:38.186Z,35.3569
2018-02-22T08:56:43.387Z,35.6053
2018-02-22T08:57:48.832Z,35.6053
2018-02-22T08:58:54.036Z,34.8548
2018-02-22T08:59:59.500Z,35.8563
2018-02-22T09:01:05.455Z,35.1059
2018-02-22T09:02:10.929Z,34.8548
2018-02-22T09:03:16.117Z,35.3569
2018-02-22T09:04:21.602Z,35.3569
2018-02-22T09:05:26.811Z,35.3569
2018-02-22T09:06:32.450Z,35.1059
2018-02-22T09:07:37.906Z,35.1059
2018-02-22T09:08:42.840Z,35.3569
2018-02-22T09:09:48.729Z,35.1059
2018-02-22T09:10:54.186Z,34.6038
2018-02-22T09:11:59.082Z,34.8548
2018-02-22T09:13:04.525Z,34.8548
2018-02-22T09:14:09.723Z,35.3569
2018-02-22T09:15:14.616Z,35.1059
2018-02-22T09:16:20.471Z,35.1059
2018-02-22T09:17:25.955Z,35.1059
2018-02-22T09:18:31.984Z,35.3569
2018-02-22T09:19:37.215Z,34.8548
2018-02-22T09:20:42.711Z,33.8534
2018-02-22T09:21:48.249Z,34.6038
2018-02-22T09:22:53.525Z,35.3569
2018-02-22T09:23:58.995Z,34.6038
2018-02-22T09:25:04.992Z,34.3528
2018-02-22T09:26:10.189Z,35.3569
2018-02-22T09:27:15.118Z,34.3528
2018-02-22T09:28:20.850Z,34.8548
2018-02-22T09:29:25.464Z,34.3528
2018-02-22T09:30:30.948Z,34.3528
2018-02-22T09:31:35.866Z,34.1044
2018-02-22T09:32:41.044Z,34.8548
2018-02-22T09:33:46.837Z,33.8534
2018-02-22T09:34:52.310Z,34.6038
2018-02-22T09:35:57.785Z,34.6038
2018-02-22T09:37:03.435Z,34.6038
2018-02-22T09:38:08.625Z,34.1044
2018-02-22T09:39:13.828Z,33.8534
2018-02-22T09:40:19.547Z,34.1044
2018-02-22T09:41:25.048Z,34.1044
2018-02-22T09:42:30.039Z,33.8534
2018-02-22T09:43:34.971Z,33.6024
2018-02-22T09:44:40.453Z,34.1044
2018-02-22T09:45:45.885Z,33.6024
2018-02-22T09:46:51.730Z,33.1849
2018-02-22T09:47:56.961Z,34.3528
2018-02-22T09:49:02.693Z,33.4359
2018-02-22T09:50:08.193Z,34.6038
2018-02-22T09:51:13.080Z,33.8534
2018-02-22T09:52:18.874Z,33.6024
2018-02-22T09:53:24.078Z,33.6024
2018-02-22T09:54:29.997Z,32.9339
2018-02-22T09:55:34.824Z,32.9339
2018-02-22T09:56:40.012Z,32.4318
2018-02-22T09:57:45.797Z,34.1044
2018-02-22T09:58:50.981Z,33.6024
2018-02-22T09:59:56.461Z,33.4359
2018-02-22T10:01:02.212Z,32.4318
2018-02-22T10:02:07.407Z,33.4359
2018-02-22T10:03:12.874Z,33.8534
2018-02-22T10:04:19.201Z,33.6024
2018-02-22T10:05:24.661Z,34.1044
2018-02-22T10:06:30.234Z,33.4359
2018-02-22T10:07:35.698Z,34.3528
2018-02-22T10:08:41.180Z,32.9339
2018-02-22T10:09:47.062Z,33.6024
2018-02-22T10:10:52.559Z,34.1044
2018-02-22T10:11:57.789Z,34.1044
2018-02-22T10:13:03.276Z,34.1044
2018-02-22T10:14:08.458Z,33.4359
2018-02-22T10:15:13.610Z,34.3528
2018-02-22T10:16:19.358Z,32.9339
2018-02-22T10:17:24.539Z,33.6024
2018-02-22T10:18:30.000Z,33.1849
2018-02-22T10:19:35.614Z,34.1044
2018-02-22T10:20:40.535Z,34.1044
2018-02-22T10:21:46.279Z,34.6038
2018-02-22T10:22:51.207Z,34.8548
2018-02-22T10:23:56.688Z,34.6038
2018-02-22T10:25:02.440Z,34.8548
2018-02-22T10:26:07.620Z,34.8548
2018-02-22T10:27:13.127Z,34.1044
2018-02-22T10:28:19.055Z,35.1059
2018-02-22T10:29:24.244Z,35.3569
2018-02-22T10:30:29.673Z,34.1044
2018-02-22T10:31:34.900Z,35.1059
2018-02-22T10:32:40.075Z,35.6053
2018-02-22T10:33:45.238Z,34.1044
2018-02-22T10:34:50.462Z,35.1059
2018-02-22T10:35:55.116Z,34.6038
2018-02-22T10:37:00.859Z,35.3569
2018-02-22T10:38:06.075Z,35.1059
2018-02-22T10:39:11.280Z,35.6053
2018-02-22T10:40:16.946Z,35.6053
2018-02-22T10:41:22.441Z,35.3569
2018-02-22T10:42:28.785Z,35.3569
2018-02-22T10:43:34.281Z,35.6053
2018-02-22T10:44:39.970Z,36.5248
2018-02-22T10:45:45.472Z,35.3569
2018-02-22T10:46:50.873Z,35.3569
2018-02-22T10:47:56.081Z,35.1059
2018-02-22T10:49:01.932Z,35.8563
2018-02-22T10:50:07.277Z,36.0254
2018-02-22T10:51:12.816Z,36.5248
2018-02-22T10:52:18.535Z,35.1059
2018-02-22T10:53:23.995Z,35.6053
2018-02-22T10:54:29.541Z,36.5248
2018-02-22T10:55:34.484Z,35.3569
2018-02-22T10:56:39.383Z,35.6053
2018-02-22T10:57:44.523Z,35.6053
2018-02-22T10:58:49.912Z,36.2738
2018-02-22T10:59:55.455Z,37.0268
2018-02-22T11:01:00.907Z,36.2738
2018-02-22T11:02:06.373Z,36.2738
2018-02-22T11:03:12.078Z,34.6038
2018-02-22T11:04:17.478Z,35.8563
2018-02-22T11:05:22.705Z,36.1073
2018-02-22T11:06:28.278Z,36.2738
2018-02-22T11:07:33.763Z,36.5248
2018-02-22T11:08:38.979Z,36.1073
2018-02-22T11:09:44.550Z,36.1073
2018-02-22T11:10:49.465Z,36.5248
2018-02-22T11:11:54.655Z,35.6053
2018-02-22T11:13:00.240Z,36.7758
2018-02-22T11:14:05.462Z,36.1073
2018-02-22T11:15:10.654Z,35.6053
2018-02-22T11:16:15.918Z,36.5248
2018-02-22T11:17:21.118Z,35.8563
2018-02-22T11:18:41.503Z,35.8563
2018-02-22T11:19:47.055Z,35.8563
2018-02-22T11:20:52.606Z,36.1073
2018-02-22T11:21:58.132Z,36.5248
2018-02-22T11:23:03.029Z,35.8563
2018-02-22T11:24:08.251Z,35.6053
2018-02-22T11:25:14.086Z,36.2738
2018-02-22T11:26:19.551Z,36.2738
2018-02-22T11:27:39.875Z,36.7758
2018-02-22T11:28:44.828Z,36.2738
2018-02-22T11:29:50.316Z,36.0254
2018-02-22T11:30:56.077Z,36.5248
2018-02-22T11:32:01.009Z,35.8563
2018-02-22T11:33:05.916Z,37.5289
2018-02-22T11:34:11.747Z,36.2738
2018-02-22T11:35:16.678Z,36.2738
2018-02-22T11:36:22.166Z,35.3569
2018-02-22T11:37:28.272Z,36.2738
2018-02-22T11:38:33.481Z,35.3569
2018-02-22T11:39:39.050Z,37.2778
2018-02-22T11:40:44.532Z,36.5248
2018-02-22T11:41:50.002Z,35.8563
2018-02-22T11:42:55.453Z,37.2778
2018-02-22T11:44:00.691Z,36.7758
2018-02-22T11:45:05.931Z,36.7758
2018-02-22T11:46:11.755Z,35.8563
2018-02-22T11:47:16.970Z,36.0254
2018-02-22T11:48:22.169Z,36.5248
2018-02-22T11:49:27.958Z,36.7758
2018-02-22T11:50:33.160Z,34.8548
2018-02-22T11:51:38.873Z,37.5289
2018-02-22T11:52:44.366Z,36.5248
2018-02-22T11:53:49.549Z,37.5289
2018-02-22T11:54:54.978Z,37.2778
2018-02-22T11:56:00.198Z,36.0254
2018-02-22T11:57:05.111Z,36.2738
2018-02-22T11:58:10.339Z,37.2778
2018-02-22T11:59:15.828Z,36.7758
2018-02-22T12:00:21.337Z,37.2778
2018-02-22T12:01:41.493Z,37.0268
2018-02-22T12:02:46.676Z,36.7758
2018-02-22T12:03:52.792Z,37.2778
2018-02-22T12:04:58.301Z,37.2778
2018-02-22T12:06:03.796Z,37.2778
2018-02-22T12:07:09.625Z,37.0268
2018-02-22T12:08:15.096Z,36.7758
2018-02-22T12:09:20.312Z,36.7758
2018-02-22T12:10:26.166Z,37.2778
2018-02-22T12:11:31.369Z,37.5289
2018-02-22T12:12:36.794Z,37.7772
2018-02-22T12:13:42.271Z,37.7772
2018-02-22T12:14:47.792Z,38.6968
2018-02-22T12:15:53.869Z,37.5289
2018-02-22T12:16:59.267Z,37.7772
2018-02-22T12:18:04.883Z,38.6968
2018-02-22T12:19:10.655Z,37.2778
2018-02-22T12:20:15.864Z,38.9478
2018-02-22T12:21:21.249Z,38.6968
2018-02-22T12:22:41.636Z,37.2778
2018-02-22T12:23:47.136Z,38.2793
2018-02-22T12:24:52.727Z,38.2793
2018-02-22T12:25:57.925Z,38.5303
2018-02-22T12:27:03.117Z,38.0283
2018-02-22T12:28:08.287Z,38.4457
2018-02-22T12:29:13.816Z,38.6968
2018-02-22T12:30:19.167Z,38.6968
2018-02-22T12:31:24.638Z,38.9478
2018-02-22T12:32:29.844Z,38.4457
2018-02-22T12:33:35.323Z,38.0283
2018-02-22T12:34:40.834Z,39.1988
2018-02-22T12:35:46.015Z,39.1988
2018-02-22T12:36:51.735Z,39.1988
2018-02-22T12:37:57.195Z,38.6968
2018-02-22T12:39:02.109Z,39.9519
2018-02-22T12:40:07.822Z,39.7008
2018-02-22T12:41:13.314Z,39.4498
2018-02-22T12:42:19.017Z,39.1988
2018-02-22T12:43:24.774Z,39.4498
2018-02-22T12:44:30.243Z,39.4498
2018-02-22T12:45:36.361Z,39.1988
2018-02-22T12:46:41.575Z,39.9519
2018-02-22T12:47:47.060Z,39.9519
2018-02-22T12:48:52.825Z,39.9519
2018-02-22T12:49:58.347Z,40.8688
2018-02-22T12:51:03.477Z,39.9519
2018-02-22T12:52:08.638Z,40.6204
2018-02-22T12:53:14.128Z,40.1183
2018-02-22T12:54:19.584Z,40.8688
2018-02-22T12:55:25.206Z,40.6204
2018-02-22T12:56:30.404Z,40.6204
2018-02-22T12:57:35.883Z,40.1183
2018-02-22T12:58:40.775Z,40.1183
2018-02-22T12:59:46.313Z,41.5399
2018-02-22T13:00:51.787Z,40.8688
2018-02-22T13:01:57.457Z,42.0393
2018-02-22T13:03:02.964Z,42.0393
2018-02-22T13:04:08.446Z,41.5399
2018-02-22T13:05:13.087Z,42.2903
2018-02-22T13:06:18.579Z,42.5413
2018-02-22T13:07:24.076Z,41.7883
2018-02-22T13:08:29.288Z,42.0393
2018-02-22T13:09:35.069Z,42.2903
2018-02-22T13:10:39.984Z,41.7883
2018-02-22T13:11:45.441Z,42.5413
2018-02-22T13:12:51.275Z,42.5413